Time;durP1;ratioP1;P1;durP2;ratioP2;P2;SDS_P1;SDS_P2;PMS_P1;PMS_P2;Temp;Humidity;BMP_temperature;BMP_pressure;BME280_temperature;BME280_humidity;BME280_pressure;Samples;Min_cycle;Max_cycle;Signal;HPM_P1;HPM_P2
2023/08/06 00:01:42;;;;;;;3.33;2.78;;;16.80;99.90;;;;;;5051772;28;20205;-58
2023/08/06 00:04:09;;;;;;;2.92;2.60;;;16.80;99.90;;;;;;5052181;28;20259;-57
2023/08/06 00:06:36;;;;;;;3.65;2.75;;;16.80;99.90;;;;;;5051656;28;20240;-60
2023/08/06 00:09:02;;;;;;;2.70;2.50;;;16.80;99.90;;;;;;5051937;28;20235;-58
2023/08/06 00:11:30;;;;;;;3.00;2.65;;;16.80;99.90;;;;;;5051878;28;20201;-57
2023/08/06 00:13:57;;;;;;;3.97;2.47;;;17.00;99.90;;;;;;5051668;28;20214;-57
2023/08/06 00:16:24;;;;;;;2.80;2.47;;;16.90;99.90;;;;;;5051601;28;20234;-57
2023/08/06 00:18:50;;;;;;;2.63;2.42;;;17.00;99.90;;;;;;5051757;28;20212;-58
2023/08/06 00:21:17;;;;;;;3.70;3.00;;;17.00;99.90;;;;;;5051938;28;20210;-58
2023/08/06 00:23:44;;;;;;;2.50;2.30;;;17.10;99.90;;;;;;5051533;28;20403;-57
2023/08/06 00:26:11;;;;;;;3.08;2.80;;;17.00;99.90;;;;;;5051294;28;20232;-59
2023/08/06 00:28:39;;;;;;;3.30;2.08;;;17.00;99.90;;;;;;5051233;28;20232;-57
2023/08/06 00:31:05;;;;;;;2.70;2.40;;;16.80;99.90;;;;;;5051780;28;20593;-57
2023/08/06 00:33:32;;;;;;;3.85;2.38;;;16.70;99.90;;;;;;5051649;28;20212;-57
2023/08/06 00:35:59;;;;;;;4.85;2.88;;;16.50;99.90;;;;;;5053776;28;20291;-59
2023/08/06 00:38:25;;;;;;;4.85;2.50;;;16.40;99.90;;;;;;5055449;28;20209;-59
2023/08/06 00:40:53;;;;;;;4.78;2.47;;;16.50;99.90;;;;;;5055449;28;20212;-59
2023/08/06 00:43:19;;;;;;;3.08;2.50;;;16.40;99.90;;;;;;5055448;28;20213;-60
2023/08/06 00:45:47;;;;;;;4.75;2.65;;;16.40;99.90;;;;;;5055110;28;20221;-60
2023/08/06 00:48:15;;;;;;;2.95;2.67;;;16.60;99.90;;;;;;5055355;28;20284;-59
2023/08/06 00:50:41;;;;;;;2.95;2.65;;;16.60;99.90;;;;;;5055037;28;20229;-59
2023/08/06 00:53:09;;;;;;;4.35;2.83;;;16.60;99.90;;;;;;5055141;28;20216;-59
2023/08/06 00:55:36;;;;;;;3.58;3.20;;;16.60;99.90;;;;;;5055054;28;20230;-58
2023/08/06 00:58:03;;;;;;;2.97;2.67;;;16.60;99.90;;;;;;5055189;28;20214;-58
2023/08/06 01:00:30;;;;;;;3.05;2.78;;;16.70;99.90;;;;;;5055254;28;20209;-58
2023/08/06 01:02:58;;;;;;;4.38;2.83;;;16.70;99.90;;;;;;5055038;28;20719;-60
2023/08/06 01:05:25;;;;;;;3.58;2.90;;;16.80;99.90;;;;;;5054972;28;20226;-58
2023/08/06 01:08:08;;;;;;;3.15;2.65;;;16.90;99.90;;;;;;5054798;28;20205;-59
2023/08/06 01:10:56;;;;;;;3.35;2.75;;;16.90;99.90;;;;;;5055128;28;20317;-59
2023/08/06 01:13:28;;;;;;;3.33;2.80;;;16.90;99.90;;;;;;5055036;28;20296;-58
2023/08/06 01:15:57;;;;;;;3.88;3.05;;;17.00;99.90;;;;;;5054661;28;20236;-59
2023/08/06 01:18:26;;;;;;;3.42;2.90;;;17.00;99.90;;;;;;5054690;28;20233;-59
2023/08/06 01:20:54;;;;;;;3.47;2.90;;;17.10;99.90;;;;;;5054571;28;20201;-58
2023/08/06 01:23:21;;;;;;;3.20;2.83;;;16.90;99.90;;;;;;5054950;28;20209;-59
2023/08/06 01:25:54;;;;;;;3.17;2.80;;;16.80;99.90;;;;;;5054473;28;20225;-58
2023/08/06 01:28:27;;;;;;;3.10;2.75;;;16.80;99.90;;;;;;5054725;28;20202;-59
2023/08/06 01:30:56;;;;;;;3.22;2.70;;;16.70;99.90;;;;;;5054996;28;20225;-59
2023/08/06 01:33:24;;;;;;;3.10;2.80;;;16.70;99.90;;;;;;5054793;28;20205;-58
2023/08/06 01:35:51;;;;;;;3.40;3.08;;;16.60;99.90;;;;;;5053883;28;20720;-59
2023/08/06 01:38:20;;;;;;;3.65;3.25;;;16.40;99.90;;;;;;5054550;28;20251;-59
2023/08/06 01:40:46;;;;;;;4.47;2.95;;;16.30;99.90;;;;;;5054524;28;20206;-60
2023/08/06 01:43:13;;;;;;;3.13;2.90;;;16.00;99.90;;;;;;5054363;28;20212;-59
2023/08/06 01:45:40;;;;;;;5.32;3.00;;;16.00;99.90;;;;;;5053395;28;20230;-60
2023/08/06 01:48:06;;;;;;;5.25;3.47;;;16.00;99.90;;;;;;5054493;28;20214;-59
2023/08/06 01:50:33;;;;;;;5.70;3.75;;;16.00;99.90;;;;;;5054043;28;20636;-58
2023/08/06 01:52:59;;;;;;;4.63;3.25;;;16.00;99.90;;;;;;5054263;28;20210;-58
2023/08/06 01:55:27;;;;;;;4.45;3.60;;;16.00;99.90;;;;;;5054168;28;20375;-58
2023/08/06 01:57:54;;;;;;;4.13;3.35;;;16.10;99.90;;;;;;5053925;28;20212;-58
2023/08/06 02:00:21;;;;;;;5.22;3.25;;;16.10;99.90;;;;;;5053966;28;20212;-59
2023/08/06 02:02:47;;;;;;;3.78;3.10;;;16.30;99.90;;;;;;5053945;28;20670;-58
2023/08/06 02:05:14;;;;;;;6.13;3.67;;;16.40;99.90;;;;;;5053921;28;20629;-58
2023/08/06 02:07:41;;;;;;;4.70;3.40;;;16.40;99.90;;;;;;5053827;28;20217;-59
2023/08/06 02:10:09;;;;;;;6.25;3.40;;;16.50;99.90;;;;;;5053756;28;20218;-59
2023/08/06 02:12:37;;;;;;;3.40;3.10;;;16.50;99.90;;;;;;5053754;28;20571;-58
2023/08/06 02:15:04;;;;;;;3.97;3.30;;;16.70;99.90;;;;;;5053810;28;20228;-59
2023/08/06 02:17:31;;;;;;;5.90;3.40;;;16.80;99.90;;;;;;5053647;28;20209;-59
2023/08/06 02:19:57;;;;;;;4.28;2.88;;;16.80;99.90;;;;;;5053739;28;20206;-58
2023/08/06 02:22:24;;;;;;;4.28;2.92;;;16.80;99.90;;;;;;5053738;28;20212;-59
2023/08/06 02:24:51;;;;;;;3.40;3.10;;;16.70;99.90;;;;;;5053981;28;20427;-58
2023/08/06 02:27:17;;;;;;;3.05;2.75;;;16.70;99.90;;;;;;5053462;28;20216;-59
2023/08/06 02:29:46;;;;;;;3.80;2.85;;;16.70;99.90;;;;;;5053353;28;20724;-58
2023/08/06 02:32:12;;;;;;;3.03;2.72;;;16.70;99.90;;;;;;5053642;28;20228;-59
2023/08/06 02:34:39;;;;;;;5.85;3.97;;;16.70;99.90;;;;;;5053480;28;20236;-58
2023/08/06 02:37:06;;;;;;;3.47;2.75;;;16.60;99.90;;;;;;5053024;28;20218;-59
2023/08/06 02:39:33;;;;;;;2.92;2.70;;;16.60;99.90;;;;;;5053298;28;20201;-58
2023/08/06 02:42:00;;;;;;;5.18;3.13;;;16.70;99.90;;;;;;5053102;28;20202;-59
2023/08/06 02:44:28;;;;;;;3.72;2.97;;;16.70;99.90;;;;;;5053175;28;20212;-58
2023/08/06 02:46:56;;;;;;;3.58;2.92;;;16.70;99.90;;;;;;5052986;28;20673;-59
2023/08/06 02:49:23;;;;;;;3.75;3.30;;;16.70;99.90;;;;;;5053070;28;20229;-58
2023/08/06 02:51:49;;;;;;;5.30;4.03;;;16.70;99.90;;;;;;5053179;28;20213;-60
2023/08/06 02:54:16;;;;;;;2.70;2.50;;;16.80;99.90;;;;;;5053041;28;20212;-58
2023/08/06 02:56:44;;;;;;;6.60;4.90;;;16.80;99.90;;;;;;5053067;28;20256;-58
2023/08/06 02:59:11;;;;;;;4.18;2.67;;;16.90;99.90;;;;;;5052167;28;20240;-59
2023/08/06 03:01:38;;;;;;;4.45;3.97;;;16.90;99.90;;;;;;5053184;28;20201;-58
2023/08/06 03:04:06;;;;;;;3.60;2.72;;;16.90;99.90;;;;;;5053085;28;20201;-60
2023/08/06 03:06:33;;;;;;;2.50;2.28;;;17.00;99.90;;;;;;5053071;28;20233;-59
2023/08/06 03:08:59;;;;;;;3.25;2.75;;;17.00;99.90;;;;;;5052653;28;20595;-58
2023/08/06 03:11:26;;;;;;;4.28;2.90;;;17.00;99.90;;;;;;5053020;28;20222;-59
2023/08/06 03:13:53;;;;;;;5.20;3.13;;;17.00;99.90;;;;;;5052736;28;20206;-60
2023/08/06 03:16:20;;;;;;;3.60;2.65;;;16.90;99.90;;;;;;5052365;28;20229;-57
2023/08/06 03:18:47;;;;;;;4.00;2.00;;;16.80;99.90;;;;;;5052680;28;20221;-58
2023/08/06 03:21:15;;;;;;;3.50;2.70;;;16.70;99.90;;;;;;5052494;28;20244;-57
2023/08/06 03:23:42;;;;;;;2.53;2.00;;;16.50;99.90;;;;;;5052397;28;20209;-59
2023/08/06 03:26:09;;;;;;;2.80;2.00;;;16.40;99.90;;;;;;5052208;28;20279;-58
2023/08/06 03:28:35;;;;;;;4.55;2.80;;;16.30;99.90;;;;;;5052473;28;20201;-58
2023/08/06 03:31:03;;;;;;;4.50;3.22;;;16.30;99.90;;;;;;5052275;28;20228;-57
2023/08/06 03:33:30;;;;;;;2.47;1.92;;;16.20;99.90;;;;;;5052839;28;20649;-58
2023/08/06 03:35:57;;;;;;;2.28;1.83;;;16.20;99.90;;;;;;5051707;28;20229;-58
2023/08/06 03:38:25;;;;;;;3.35;2.05;;;16.10;99.90;;;;;;5052480;28;20201;-58
2023/08/06 03:40:51;;;;;;;4.10;2.30;;;16.10;99.90;;;;;;5052244;28;20704;-59
2023/08/06 03:43:18;;;;;;;4.45;2.60;;;16.10;99.90;;;;;;5052303;28;20209;-58
2023/08/06 03:45:45;;;;;;;3.70;1.80;;;16.30;99.90;;;;;;5051886;28;20226;-58
2023/08/06 03:48:11;;;;;;;2.33;2.10;;;16.30;99.90;;;;;;5051820;28;20761;-57
2023/08/06 03:50:38;;;;;;;2.15;1.70;;;16.30;99.90;;;;;;5051790;28;20567;-59
2023/08/06 03:53:05;;;;;;;3.80;2.65;;;16.40;99.90;;;;;;5051803;28;20659;-60
2023/08/06 03:55:33;;;;;;;2.33;2.05;;;16.50;99.90;;;;;;5052202;28;20233;-60
2023/08/06 03:58:00;;;;;;;3.75;2.55;;;16.60;99.90;;;;;;5051653;28;20216;-59
2023/08/06 04:00:26;;;;;;;2.78;2.20;;;16.60;99.90;;;;;;5051952;28;20198;-59
2023/08/06 04:02:53;;;;;;;2.45;1.90;;;16.60;99.90;;;;;;5051905;28;20205;-60
2023/08/06 04:05:20;;;;;;;5.63;2.13;;;16.70;99.90;;;;;;5051742;28;20237;-59
2023/08/06 04:07:46;;;;;;;4.15;2.17;;;16.70;99.90;;;;;;5051732;28;20212;-60
2023/08/06 04:10:13;;;;;;;2.92;1.85;;;16.70;99.90;;;;;;5051383;28;20739;-59
2023/08/06 04:12:41;;;;;;;2.20;2.00;;;16.60;99.90;;;;;;5052054;28;20782;-60
2023/08/06 04:15:08;;;;;;;4.68;2.00;;;16.70;99.90;;;;;;5052038;28;20249;-61
2023/08/06 04:17:35;;;;;;;5.07;2.47;;;16.70;99.90;;;;;;5051471;28;20259;-61
2023/08/06 04:20:02;;;;;;;7.40;2.10;;;16.70;99.90;;;;;;5052077;28;20209;-61
2023/08/06 04:22:28;;;;;;;2.97;1.98;;;16.80;99.90;;;;;;5051962;28;20649;-59
2023/08/06 04:24:55;;;;;;;2.80;1.80;;;16.80;99.90;;;;;;5051599;28;20212;-62
2023/08/06 04:27:22;;;;;;;3.28;2.40;;;16.90;99.90;;;;;;5051426;28;20206;-59
2023/08/06 04:29:50;;;;;;;2.58;2.05;;;16.90;99.90;;;;;;5052097;28;20229;-58
2023/08/06 04:32:17;;;;;;;1.95;1.58;;;16.90;99.90;;;;;;5051376;28;20259;-60
2023/08/06 04:34:44;;;;;;;3.25;1.92;;;16.90;99.90;;;;;;5051506;28;20256;-59
2023/08/06 04:37:10;;;;;;;3.13;1.52;;;16.90;99.90;;;;;;5051335;28;20264;-60
2023/08/06 04:39:37;;;;;;;4.38;1.80;;;16.80;99.90;;;;;;5051516;28;20201;-59
2023/08/06 04:42:05;;;;;;;3.13;2.08;;;16.80;99.90;;;;;;5051421;28;20212;-61
2023/08/06 04:44:31;;;;;;;4.03;2.00;;;16.80;99.90;;;;;;5051315;28;20210;-58
2023/08/06 04:46:59;;;;;;;2.13;1.48;;;16.80;99.90;;;;;;5050771;28;20598;-58
2023/08/06 04:49:26;;;;;;;3.78;1.80;;;16.90;99.90;;;;;;5051631;28;20206;-58
2023/08/06 04:51:53;;;;;;;2.42;1.65;;;16.90;99.90;;;;;;5051541;28;20225;-61
2023/08/06 04:54:19;;;;;;;3.30;1.75;;;16.90;99.90;;;;;;5051234;28;20205;-58
2023/08/06 04:56:46;;;;;;;4.72;2.05;;;17.00;99.90;;;;;;5050942;28;20717;-58
2023/08/06 04:59:13;;;;;;;2.42;1.70;;;17.00;99.90;;;;;;5051703;28;20657;-58
2023/08/06 05:01:39;;;;;;;2.53;1.83;;;17.10;99.90;;;;;;5051428;28;20592;-59
2023/08/06 05:04:07;;;;;;;2.25;1.70;;;17.10;99.90;;;;;;5051164;28;20583;-59
2023/08/06 05:06:34;;;;;;;2.60;1.45;;;17.10;99.90;;;;;;5051011;28;20236;-59
2023/08/06 05:09:01;;;;;;;3.58;2.00;;;17.20;99.90;;;;;;5051373;28;20214;-58
2023/08/06 05:11:27;;;;;;;4.22;1.83;;;17.20;99.90;;;;;;5051121;28;20263;-59
2023/08/06 05:13:54;;;;;;;3.90;2.00;;;17.40;99.90;;;;;;5051178;28;20216;-60
2023/08/06 05:16:21;;;;;;;3.05;1.52;;;17.50;99.90;;;;;;5050654;28;20235;-58
2023/08/06 05:18:47;;;;;;;4.78;1.58;;;17.60;99.90;;;;;;5051361;28;20225;-59
2023/08/06 05:21:16;;;;;;;2.50;1.67;;;17.60;99.90;;;;;;5052252;28;20197;-60
2023/08/06 05:23:42;;;;;;;3.78;1.60;;;17.60;99.90;;;;;;5054862;28;20205;-60
2023/08/06 05:26:09;;;;;;;3.70;1.65;;;17.60;99.90;;;;;;5054428;28;20233;-60
2023/08/06 05:28:36;;;;;;;2.65;1.67;;;17.60;99.90;;;;;;5054533;28;20212;-60
2023/08/06 05:31:04;;;;;;;3.08;1.92;;;17.60;99.90;;;;;;5054654;28;20229;-60
2023/08/06 05:33:31;;;;;;;2.45;1.60;;;17.60;99.90;;;;;;5054757;28;20241;-60
2023/08/06 05:35:58;;;;;;;2.47;1.70;;;17.70;99.90;;;;;;5054202;28;20237;-61
2023/08/06 05:38:26;;;;;;;3.25;1.70;;;17.80;99.90;;;;;;5054482;28;20296;-60
2023/08/06 05:40:52;;;;;;;3.05;1.55;;;17.80;99.90;;;;;;5054366;28;20202;-61
2023/08/06 05:43:19;;;;;;;3.58;1.90;;;17.90;99.90;;;;;;5054526;28;20216;-59
2023/08/06 05:45:47;;;;;;;2.00;1.50;;;18.10;99.90;;;;;;5054127;28;20225;-61
2023/08/06 05:48:13;;;;;;;3.63;1.88;;;18.30;99.90;;;;;;5054353;28;20205;-59
2023/08/06 05:50:40;;;;;;;2.72;1.48;;;18.60;99.90;;;;;;5054313;28;20225;-61
2023/08/06 05:53:07;;;;;;;2.20;1.38;;;19.30;99.90;;;;;;5054230;28;20216;-60
2023/08/06 05:55:35;;;;;;;1.35;1.20;;;19.90;99.90;;;;;;5054029;28;20225;-59
2023/08/06 05:58:02;;;;;;;1.38;1.23;;;20.20;99.90;;;;;;5053735;28;20210;-59
2023/08/06 06:00:29;;;;;;;2.63;1.63;;;20.30;99.90;;;;;;5054153;28;20227;-59
2023/08/06 06:02:55;;;;;;;3.42;1.50;;;20.10;99.90;;;;;;5054370;28;20201;-60
2023/08/06 06:05:22;;;;;;;3.13;1.45;;;19.80;99.90;;;;;;5054052;28;20230;-60
2023/08/06 06:07:49;;;;;;;2.05;1.40;;;19.60;99.90;;;;;;5053688;28;20209;-61
2023/08/06 06:10:15;;;;;;;3.97;1.35;;;19.40;99.90;;;;;;5053699;28;20209;-60
2023/08/06 06:12:43;;;;;;;6.47;1.50;;;19.20;99.90;;;;;;5053958;28;20205;-60
2023/08/06 06:15:11;;;;;;;3.53;1.48;;;19.10;99.90;;;;;;5053590;28;20732;-60
2023/08/06 06:17:37;;;;;;;3.30;1.20;;;19.00;99.90;;;;;;5053618;28;20577;-59
2023/08/06 06:20:05;;;;;;;2.55;1.40;;;18.90;99.90;;;;;;5053639;28;20668;-58
2023/08/06 06:22:32;;;;;;;4.40;1.35;;;18.90;99.90;;;;;;5053542;28;20252;-59
2023/08/06 06:24:58;;;;;;;1.55;1.30;;;18.80;99.90;;;;;;5053472;28;20292;-60
2023/08/06 06:27:25;;;;;;;2.70;1.38;;;18.80;99.90;;;;;;5053434;28;20216;-61
2023/08/06 06:29:54;;;;;;;2.55;1.25;;;18.70;99.90;;;;;;5053573;28;20205;-62
2023/08/06 06:32:21;;;;;;;3.45;1.52;;;18.70;99.90;;;;;;5053281;28;20372;-61
2023/08/06 06:34:48;;;;;;;1.30;0.90;;;18.70;99.90;;;;;;5053241;28;20213;-61
2023/08/06 06:37:14;;;;;;;1.13;1.00;;;18.80;99.90;;;;;;5053586;28;20210;-61
2023/08/06 06:39:41;;;;;;;4.43;1.23;;;18.90;99.90;;;;;;5053119;28;20205;-63
2023/08/06 06:42:08;;;;;;;1.30;0.93;;;19.00;99.90;;;;;;5053501;28;20209;-61
2023/08/06 06:44:34;;;;;;;2.05;1.00;;;19.00;99.90;;;;;;5053234;28;20216;-61
2023/08/06 06:47:02;;;;;;;1.20;0.82;;;18.90;99.90;;;;;;5052852;28;20233;-60
2023/08/06 06:49:29;;;;;;;1.60;0.80;;;18.70;99.90;;;;;;5053068;28;20212;-60
2023/08/06 06:51:56;;;;;;;2.00;0.68;;;18.60;99.90;;;;;;5052991;28;20221;-61
2023/08/06 06:54:22;;;;;;;1.40;0.80;;;18.40;99.90;;;;;;5053245;28;20210;-62
2023/08/06 06:56:49;;;;;;;1.27;0.70;;;18.50;99.90;;;;;;5052857;28;20271;-65
2023/08/06 06:59:16;;;;;;;2.63;0.70;;;18.70;99.90;;;;;;5053062;28;20209;-61
2023/08/06 07:01:43;;;;;;;3.70;0.80;;;18.80;99.90;;;;;;5052800;28;20216;-60
2023/08/06 07:04:11;;;;;;;1.95;0.63;;;18.90;99.90;;;;;;5052781;28;20213;-61
2023/08/06 07:06:38;;;;;;;2.30;0.50;;;19.00;99.90;;;;;;5052396;28;20244;-61
2023/08/06 07:09:05;;;;;;;1.15;0.50;;;19.20;99.90;;;;;;5053116;28;20636;-59
2023/08/06 07:11:32;;;;;;;0.70;0.55;;;19.30;99.90;;;;;;5052733;28;20233;-62
2023/08/06 07:13:59;;;;;;;1.75;0.63;;;19.30;99.90;;;;;;5052621;28;20220;-60
2023/08/06 07:16:26;;;;;;;1.60;0.88;;;19.20;99.90;;;;;;5052294;28;20233;-59
2023/08/06 07:18:53;;;;;;;1.73;1.00;;;19.10;99.90;;;;;;5052513;28;20209;-59
2023/08/06 07:21:22;;;;;;;2.10;0.52;;;18.90;99.90;;;;;;5052452;28;20670;-62
2023/08/06 07:23:49;;;;;;;0.93;0.45;;;18.80;99.90;;;;;;5052489;28;20673;-61
2023/08/06 07:26:17;;;;;;;1.63;0.82;;;18.80;99.90;;;;;;5052237;28;20233;-61
2023/08/06 07:28:44;;;;;;;6.05;1.83;;;18.80;99.90;;;;;;5052401;28;20244;-60
2023/08/06 07:31:11;;;;;;;1.55;0.95;;;19.00;99.90;;;;;;5052257;28;20324;-61
2023/08/06 07:33:37;;;;;;;2.38;0.77;;;19.30;99.90;;;;;;5052217;28;20216;-61
2023/08/06 07:36:09;;;;;;;0.98;0.70;;;19.50;99.90;;;;;;5051701;28;20245;-60
2023/08/06 07:38:38;;;;;;;1.67;0.70;;;19.40;99.90;;;;;;5052383;28;20224;-59
2023/08/06 07:41:05;;;;;;;0.98;0.50;;;19.30;99.90;;;;;;5052109;28;20205;-61
2023/08/06 07:43:32;;;;;;;1.05;0.50;;;19.10;99.90;;;;;;5051790;28;20210;-61
2023/08/06 07:45:59;;;;;;;1.02;0.40;;;18.90;99.90;;;;;;5051634;28;20347;-60
2023/08/06 07:48:26;;;;;;;1.83;0.60;;;18.80;99.90;;;;;;5052291;28;20229;-60
2023/08/06 07:50:53;;;;;;;2.35;0.75;;;18.60;99.90;;;;;;5051938;28;20609;-61
2023/08/06 07:53:20;;;;;;;1.65;0.80;;;18.60;99.90;;;;;;5052145;28;20239;-60
2023/08/06 07:55:51;;;;;;;0.77;0.52;;;18.60;99.90;;;;;;5051771;28;20226;-60
2023/08/06 07:58:17;;;;;;;0.95;0.50;;;18.70;99.90;;;;;;5051873;28;20689;-61
2023/08/06 08:00:45;;;;;;;0.85;0.35;;;18.70;99.90;;;;;;5051742;28;20205;-61
2023/08/06 08:03:12;;;;;;;0.28;0.28;;;18.60;99.90;;;;;;5052153;28;20300;-61
2023/08/06 08:05:38;;;;;;;1.83;0.50;;;18.70;99.90;;;;;;5051883;28;20252;-63
2023/08/06 08:08:05;;;;;;;0.65;0.50;;;18.80;99.90;;;;;;5051958;28;20213;-60
2023/08/06 08:10:32;;;;;;;1.42;0.50;;;19.00;99.90;;;;;;5051836;28;20239;-61
2023/08/06 08:13:00;;;;;;;0.98;0.43;;;19.10;99.90;;;;;;5049131;28;20229;-62
2023/08/06 08:15:28;;;;;;;0.85;0.40;;;19.20;99.90;;;;;;5050474;28;20228;-61
2023/08/06 08:17:55;;;;;;;0.80;0.30;;;19.20;99.90;;;;;;5050487;28;20205;-60
2023/08/06 08:20:22;;;;;;;0.57;0.40;;;19.30;99.90;;;;;;5050666;28;20243;-61
2023/08/06 08:22:49;;;;;;;1.02;0.30;;;19.30;99.90;;;;;;5050685;28;20205;-60
2023/08/06 08:25:17;;;;;;;1.65;0.40;;;19.30;99.90;;;;;;5050509;28;20225;-60
2023/08/06 08:27:43;;;;;;;0.32;0.15;;;19.30;99.90;;;;;;5050320;28;20674;-60
2023/08/06 08:30:12;;;;;;;0.82;0.35;;;19.30;99.90;;;;;;5050566;28;20212;-60
2023/08/06 08:32:38;;;;;;;0.25;0.20;;;19.40;99.90;;;;;;5050703;28;20375;-59
2023/08/06 08:35:05;;;;;;;0.43;0.30;;;19.50;99.90;;;;;;5050528;28;20233;-59
2023/08/06 08:37:33;;;;;;;0.52;0.40;;;19.70;99.90;;;;;;5050445;28;20205;-60
2023/08/06 08:40:00;;;;;;;1.10;0.55;;;20.00;99.90;;;;;;5050477;28;20209;-61
2023/08/06 08:42:27;;;;;;;3.58;0.45;;;20.40;99.90;;;;;;5050933;28;20233;-60
2023/08/06 08:44:55;;;;;;;1.17;0.63;;;20.90;99.90;;;;;;5050814;28;20475;-57
2023/08/06 08:47:25;;;;;;;0.65;0.40;;;21.20;99.90;;;;;;5050508;28;20213;-59
2023/08/06 08:49:55;;;;;;;0.40;0.32;;;21.40;99.90;;;;;;5050671;28;20217;-59
2023/08/06 08:52:23;;;;;;;1.08;0.30;;;21.50;99.90;;;;;;5050469;28;20217;-58
2023/08/06 08:54:51;;;;;;;0.30;0.20;;;21.50;99.90;;;;;;5050069;28;20209;-59
2023/08/06 08:57:18;;;;;;;1.45;0.25;;;21.50;99.90;;;;;;5053149;28;20588;-57
2023/08/06 08:59:45;;;;;;;0.77;0.30;;;21.60;99.90;;;;;;5054349;28;20205;-63
2023/08/06 09:02:13;;;;;;;0.55;0.10;;;21.50;99.90;;;;;;5054390;28;20232;-57
2023/08/06 09:04:43;;;;;;;0.93;0.28;;;21.50;99.90;;;;;;5054227;28;20209;-56
2023/08/06 09:07:14;;;;;;;0.65;0.45;;;21.30;99.90;;;;;;5053488;28;20205;-57
2023/08/06 09:09:41;;;;;;;1.55;0.30;;;21.10;99.90;;;;;;5054198;28;20260;-57
2023/08/06 09:12:14;;;;;;;0.10;0.10;;;20.90;99.90;;;;;;5053963;28;20290;-59
2023/08/06 09:14:41;;;;;;;0.60;0.22;;;20.70;99.90;;;;;;5054107;28;20205;-58
2023/08/06 09:17:10;;;;;;;0.38;0.20;;;20.60;99.90;;;;;;5053543;28;20213;-59
2023/08/06 09:19:37;;;;;;;1.23;1.13;;;20.60;99.90;;;;;;5053541;28;20205;-59
2023/08/06 09:22:10;;;;;;;2.80;0.20;;;20.60;99.90;;;;;;5053774;28;20583;-59
2023/08/06 09:24:39;;;;;;;0.75;0.50;;;20.40;99.90;;;;;;5053398;28;20553;-60
2023/08/06 09:27:06;;;;;;;2.25;0.40;;;20.00;99.90;;;;;;5053306;28;20209;-59
2023/08/06 09:29:33;;;;;;;1.98;0.30;;;19.70;99.90;;;;;;5053632;28;20216;-61
2023/08/06 09:32:00;;;;;;;0.22;0.10;;;19.40;99.90;;;;;;5053176;28;20313;-58
2023/08/06 09:34:27;;;;;;;1.85;0.30;;;19.20;99.90;;;;;;5053495;28;20209;-58
2023/08/06 09:36:54;;;;;;;0.50;0.28;;;19.20;99.90;;;;;;5053177;28;20225;-58
2023/08/06 09:39:28;;;;;;;2.60;1.10;;;19.30;99.90;;;;;;5053564;28;20673;-59
2023/08/06 09:41:58;;;;;;;1.77;0.60;;;19.30;99.90;;;;;;5053792;28;20247;-58
2023/08/06 09:44:27;;;;;;;0.28;0.17;;;19.10;99.90;;;;;;5053587;28;20297;-58
2023/08/06 09:46:55;;;;;;;0.50;0.20;;;19.20;99.90;;;;;;5052965;28;20229;-59
2023/08/06 09:49:26;;;;;;;0.45;0.15;;;19.30;99.90;;;;;;5053649;28;20607;-59
2023/08/06 09:51:55;;;;;;;3.42;2.50;;;19.40;99.90;;;;;;5053436;28;20229;-58
2023/08/06 09:54:24;;;;;;;1.60;0.68;;;19.60;99.90;;;;;;5053244;28;20268;-59
2023/08/06 09:56:51;;;;;;;1.00;0.47;;;19.80;99.90;;;;;;5052892;28;20232;-60
2023/08/06 09:59:19;;;;;;;0.47;0.40;;;19.70;99.90;;;;;;5053401;28;20232;-57
2023/08/06 10:01:47;;;;;;;1.30;0.75;;;19.80;99.90;;;;;;5053192;28;20583;-58
2023/08/06 10:04:16;;;;;;;0.32;0.32;;;19.60;99.90;;;;;;5053750;28;20214;-59
2023/08/06 10:06:43;;;;;;;1.42;1.25;;;19.30;99.90;;;;;;5052373;28;20226;-57
2023/08/06 10:09:10;;;;;;;1.25;0.70;;;19.10;99.90;;;;;;5053728;28;20212;-58
2023/08/06 10:11:40;;;;;;;0.95;0.38;;;19.00;99.90;;;;;;5053257;28;20233;-59
2023/08/06 10:14:10;;;;;;;1.45;0.90;;;19.10;99.90;;;;;;5052993;28;20210;-58
2023/08/06 10:16:38;;;;;;;1.00;0.50;;;19.20;99.90;;;;;;5052901;28;20222;-60
2023/08/06 10:19:06;;;;;;;0.45;0.45;;;19.30;99.90;;;;;;5052711;28;20214;-59
2023/08/06 10:21:32;;;;;;;3.90;0.90;;;19.40;99.90;;;;;;5052756;28;20212;-60
2023/08/06 10:24:01;;;;;;;0.35;0.30;;;19.40;99.90;;;;;;5052606;28;20595;-60
2023/08/06 10:26:28;;;;;;;1.05;0.40;;;19.40;99.90;;;;;;5052258;28;20229;-60
2023/08/06 10:28:57;;;;;;;0.68;0.55;;;19.30;99.90;;;;;;5052958;28;20217;-59
2023/08/06 10:31:59;;;;;;;0.70;0.45;;;19.30;99.90;;;;;;5052353;28;20764;-60
2023/08/06 10:34:26;;;;;;;0.75;0.40;;;19.50;99.90;;;;;;5052994;28;20562;-60
2023/08/06 10:36:56;;;;;;;0.17;0.17;;;19.70;99.90;;;;;;5051987;28;20237;-60
2023/08/06 10:39:23;;;;;;;0.80;0.20;;;19.80;99.90;;;;;;5052394;28;20556;-59
2023/08/06 10:41:49;;;;;;;0.52;0.30;;;20.10;99.90;;;;;;5052696;28;20208;-61
2023/08/06 10:44:17;;;;;;;0.30;0.22;;;20.30;99.90;;;;;;5052283;28;20217;-60
2023/08/06 10:46:49;;;;;;;0.40;0.32;;;20.30;99.90;;;;;;5052083;28;20229;-59
2023/08/06 10:49:19;;;;;;;0.80;0.45;;;20.20;99.90;;;;;;5052203;28;20297;-60
2023/08/06 10:51:46;;;;;;;1.20;0.40;;;19.90;99.90;;;;;;5052285;28;20583;-60
2023/08/06 10:54:13;;;;;;;0.22;0.10;;;19.60;99.90;;;;;;5052424;28;20221;-60
2023/08/06 10:56:42;;;;;;;0.13;0.10;;;19.40;99.90;;;;;;5051555;28;20232;-60
2023/08/06 10:59:10;;;;;;;1.00;0.60;;;19.20;99.90;;;;;;5051938;28;20233;-59
2023/08/06 11:01:38;;;;;;;0.57;0.20;;;19.10;99.90;;;;;;5052448;28;20209;-59
2023/08/06 11:04:05;;;;;;;1.15;0.45;;;19.00;99.90;;;;;;5051821;28;20578;-59
2023/08/06 11:06:33;;;;;;;1.30;0.50;;;19.00;99.90;;;;;;5051681;28;20267;-60
2023/08/06 11:09:00;;;;;;;1.65;1.10;;;18.90;99.90;;;;;;5051559;28;20214;-59
2023/08/06 11:11:26;;;;;;;0.73;0.55;;;18.80;99.90;;;;;;5051879;28;20205;-61
2023/08/06 11:13:53;;;;;;;1.95;1.17;;;18.60;99.90;;;;;;5052228;28;20236;-60
2023/08/06 11:16:23;;;;;;;8.75;3.10;;;18.20;99.90;;;;;;5051897;28;20221;-59
2023/08/06 11:18:52;;;;;;;3.45;0.98;;;18.10;99.90;;;;;;5050753;28;20280;-58
2023/08/06 11:21:22;;;;;;;1.33;0.70;;;18.10;99.90;;;;;;5051692;28;20267;-58
2023/08/06 11:23:49;;;;;;;0.95;0.60;;;18.10;99.90;;;;;;5051866;28;20209;-60
2023/08/06 11:26:20;;;;;;;0.82;0.63;;;18.20;99.90;;;;;;5050842;28;20221;-61
2023/08/06 11:28:46;;;;;;;0.30;0.30;;;18.30;99.90;;;;;;5051352;28;20212;-60
2023/08/06 11:31:20;;;;;;;0.95;0.47;;;18.10;99.90;;;;;;5051344;28;20206;-58
2023/08/06 11:33:46;;;;;;;0.60;0.50;;;18.00;99.90;;;;;;5051237;28;20221;-60
2023/08/06 11:36:14;;;;;;;1.48;0.50;;;18.00;99.90;;;;;;5051818;28;20640;-58
2023/08/06 11:38:41;;;;;;;0.60;0.50;;;18.10;99.90;;;;;;5052306;28;20588;-60
2023/08/06 11:41:08;;;;;;;1.92;1.52;;;18.20;99.90;;;;;;5052041;28;20209;-59
2023/08/06 11:43:35;;;;;;;0.90;0.60;;;18.20;99.90;;;;;;5052340;28;20213;-58
2023/08/06 11:46:02;;;;;;;0.90;0.70;;;18.20;99.90;;;;;;5052069;28;20283;-59
2023/08/06 11:48:29;;;;;;;2.20;1.33;;;18.30;99.90;;;;;;5052245;28;20278;-59
2023/08/06 11:50:57;;;;;;;3.95;2.30;;;18.30;99.90;;;;;;5052129;28;20209;-59
2023/08/06 11:53:28;;;;;;;2.38;1.00;;;18.20;99.90;;;;;;5051928;28;20608;-60
2023/08/06 11:55:55;;;;;;;0.90;0.75;;;18.20;99.90;;;;;;5051714;28;20295;-59
2023/08/06 11:58:22;;;;;;;2.95;1.20;;;18.20;99.90;;;;;;5052285;28;20212;-59
2023/08/06 12:00:49;;;;;;;1.85;0.98;;;18.10;99.90;;;;;;5051803;28;20696;-58
2023/08/06 12:03:19;;;;;;;3.83;1.23;;;17.90;99.90;;;;;;5052816;28;20197;-60
2023/08/06 12:05:47;;;;;;;3.28;1.25;;;17.70;99.90;;;;;;5052587;28;20233;-59
2023/08/06 12:08:14;;;;;;;4.22;1.00;;;17.50;99.90;;;;;;5052561;28;20682;-60
2023/08/06 12:10:42;;;;;;;1.45;1.10;;;17.40;99.90;;;;;;5052833;28;20212;-58
2023/08/06 12:13:08;;;;;;;1.15;1.00;;;17.40;99.90;;;;;;5052218;28;20233;-58
2023/08/06 12:15:35;;;;;;;1.27;1.10;;;17.20;99.90;;;;;;5051877;28;20222;-59
2023/08/06 12:18:02;;;;;;;1.65;0.82;;;17.20;99.90;;;;;;5051740;28;20201;-59
2023/08/06 12:20:29;;;;;;;2.50;1.60;;;17.20;99.90;;;;;;5052039;28;20208;-60
2023/08/06 12:22:55;;;;;;;3.10;1.52;;;17.20;99.90;;;;;;5051812;28;20229;-59
2023/08/06 12:25:24;;;;;;;4.82;1.65;;;17.30;99.90;;;;;;5051585;28;20222;-60
2023/08/06 12:27:52;;;;;;;2.47;1.40;;;17.20;99.90;;;;;;5051643;28;20235;-60
2023/08/06 12:30:18;;;;;;;3.42;1.73;;;17.20;99.90;;;;;;5052961;28;20205;-61
2023/08/06 12:32:45;;;;;;;2.42;1.42;;;17.30;99.90;;;;;;5055869;28;20247;-59
2023/08/06 12:35:12;;;;;;;3.35;1.50;;;17.30;99.90;;;;;;5080225;22;20240;-59
2023/08/06 12:37:39;;;;;;;3.28;1.58;;;17.20;99.90;;;;;;5055019;28;20225;-59
2023/08/06 12:40:07;;;;;;;4.10;2.20;;;17.20;99.90;;;;;;5055554;28;20623;-60
2023/08/06 12:42:33;;;;;;;1.95;1.40;;;17.10;99.90;;;;;;5055603;28;20205;-60
2023/08/06 12:45:02;;;;;;;2.67;1.70;;;17.10;99.90;;;;;;5055489;28;20206;-59
2023/08/06 12:47:29;;;;;;;2.65;1.40;;;17.00;99.90;;;;;;5035224;28;20257;-59
2023/08/06 12:49:55;;;;;;;2.45;1.40;;;17.10;99.90;;;;;;5035444;28;20225;-60